createdAt,value
2022-09-28T00:01:24.670Z,99321.00
2022-09-28T00:03:58.294Z,99311.25
2022-09-28T00:06:31.068Z,99310.91
2022-09-28T00:09:04.173Z,99312.44
2022-09-28T00:11:36.598Z,99308.50
2022-09-28T00:14:09.324Z,99314.00
2022-09-28T00:16:44.252Z,99304.97
2022-09-28T00:19:16.933Z,99306.53
2022-09-28T00:21:49.314Z,99311.25
2022-09-28T00:24:26.682Z,99307.63
2022-09-28T00:27:01.839Z,99315.09
2022-09-28T00:29:36.097Z,99317.06
2022-09-28T00:32:12.125Z,99310.25
2022-09-28T00:34:50.053Z,99314.28
2022-09-28T00:37:22.484Z,99302.75
2022-09-28T00:39:54.950Z,99298.16
2022-09-28T00:42:28.302Z,99302.53
2022-09-28T00:45:02.437Z,99299.66
2022-09-28T00:47:40.570Z,99299.16
2022-09-28T00:50:26.346Z,99294.44
2022-09-28T00:53:14.532Z,99294.63
2022-09-28T00:55:52.091Z,99293.03
2022-09-28T00:58:31.067Z,99284.34
2022-09-28T01:01:04.867Z,99287.97
2022-09-28T01:03:37.806Z,99283.03
2022-09-28T01:06:10.710Z,99285.44
2022-09-28T01:08:45.849Z,99284.56
2022-09-28T01:11:20.706Z,99271.94
2022-09-28T01:13:56.129Z,99274.59
2022-09-28T01:16:28.621Z,99276.44
2022-09-28T01:19:07.188Z,99273.19
2022-09-28T01:21:58.546Z,99213.03
2022-09-28T01:24:46.350Z,99269.78
2022-09-28T01:27:34.458Z,99273.94
2022-09-28T01:30:16.422Z,99273.50
2022-09-28T01:33:11.192Z,99282.53
2022-09-28T01:36:15.945Z,99279.78
2022-09-28T01:39:20.762Z,99279.66
2022-09-28T01:41:56.662Z,99287.44
2022-09-28T01:44:30.775Z,99287.44
2022-09-28T01:47:04.806Z,99289.84
2022-09-28T01:49:40.289Z,99294.47
2022-09-28T01:52:24.976Z,99294.78
2022-09-28T01:55:04.732Z,99295.13
2022-09-28T01:57:40.329Z,99295.78
2022-09-28T02:00:13.989Z,99292.94
2022-09-28T02:02:56.246Z,99295.56
2022-09-28T02:05:36.756Z,99295.03
2022-09-28T02:08:11.382Z,99300.84
2022-09-28T02:10:46.650Z,99292.47
2022-09-28T02:13:25.987Z,99288.22
2022-09-28T02:16:03.148Z,99287.00
2022-09-28T02:18:38.655Z,99288.97
2022-09-28T02:21:15.072Z,99297.66
2022-09-28T02:23:57.864Z,99288.31
2022-09-28T02:26:38.640Z,99289.53
2022-09-28T02:29:14.720Z,99288.31
2022-09-28T02:31:49.175Z,99293.81
2022-09-28T02:34:21.968Z,99290.41
2022-09-28T02:36:54.540Z,99291.28
2022-09-28T02:39:29.396Z,99297.44
2022-09-28T02:42:21.198Z,99288.63
2022-09-28T02:45:12.272Z,99290.94
2022-09-28T02:48:02.477Z,99283.34
2022-09-28T02:50:43.099Z,99293.78
2022-09-28T02:53:25.659Z,99295.31
2022-09-28T02:56:24.247Z,99298.38
2022-09-28T02:59:04.226Z,99307.50
2022-09-28T03:01:39.358Z,99301.13
2022-09-28T03:04:30.926Z,99304.97
2022-09-28T03:07:06.515Z,99305.16
2022-09-28T03:09:55.626Z,99293.50
2022-09-28T03:12:30.940Z,99294.72
2022-09-28T03:15:13.505Z,99291.31
2022-09-28T03:17:48.566Z,99306.88
2022-09-28T03:20:20.943Z,99300.31
2022-09-28T03:23:19.750Z,99306.13
2022-09-28T03:25:46.450Z,99299.31
2022-09-28T03:28:18.856Z,99299.31
2022-09-28T03:30:51.283Z,99302.06
2022-09-28T03:33:24.510Z,99297.38
2022-09-28T03:35:56.857Z,99291.09
2022-09-28T03:38:29.121Z,99297.38
2022-09-28T03:41:03.170Z,99298.91
2022-09-28T03:43:35.617Z,99293.00
2022-09-28T03:46:08.006Z,99296.06
2022-09-28T03:48:41.813Z,99289.28
2022-09-28T03:51:16.584Z,99291.13
2022-09-28T03:56:30.172Z,99301.91
2022-09-28T03:59:03.279Z,99300.88
2022-09-28T04:01:35.593Z,99300.22
2022-09-28T04:04:07.942Z,99299.78
2022-09-28T04:06:40.331Z,99299.88
2022-09-28T04:09:12.696Z,99304.59
2022-09-28T04:12:02.787Z,99306.13
2022-09-28T04:14:38.536Z,99308.44
2022-09-28T04:17:10.833Z,99302.53
2022-09-28T04:19:45.491Z,99306.03
2022-09-28T04:22:17.790Z,99305.47
2022-09-28T04:24:50.453Z,99310.13
2022-09-28T04:27:41.361Z,99300.34
2022-09-28T04:30:16.447Z,99301.97
2022-09-28T04:32:48.780Z,99305.16
2022-09-28T04:35:21.169Z,99306.69
2022-09-28T04:37:53.785Z,99308.22
2022-09-28T04:40:27.135Z,99303.50
2022-09-28T04:42:59.441Z,99302.75
2022-09-28T04:45:31.903Z,99302.75
2022-09-28T04:48:06.326Z,99302.41
2022-09-28T04:50:38.677Z,99299.66
2022-09-28T04:53:10.945Z,99298.56
2022-09-28T04:55:43.280Z,99292.75
2022-09-28T04:58:15.589Z,99297.13
2022-09-28T05:00:49.322Z,99290.63
2022-09-28T05:03:22.379Z,99300.25
2022-09-28T05:05:55.225Z,99305.84
2022-09-28T05:11:21.758Z,99319.50
2022-09-28T05:13:56.700Z,99320.03
2022-09-28T05:16:30.874Z,99308.41
2022-09-28T05:19:03.378Z,99319.78
2022-09-28T05:21:35.705Z,99319.38
2022-09-28T05:24:08.759Z,99322.09
2022-09-28T05:26:43.379Z,99321.22
2022-09-28T05:29:15.779Z,99329.25
2022-09-28T05:31:48.355Z,99327.19
2022-09-28T05:34:21.168Z,99328.41
2022-09-28T05:36:57.608Z,99324.66
2022-09-28T05:39:30.089Z,99323.97
2022-09-28T05:42:05.180Z,99322.78
2022-09-28T05:44:38.386Z,99318.91
2022-09-28T05:47:10.670Z,99321.22
2022-09-28T05:49:45.374Z,99319.72
2022-09-28T05:52:17.810Z,99316.63
2022-09-28T05:54:50.120Z,99325.94
2022-09-28T05:57:22.446Z,99332.53
2022-09-28T06:02:35.894Z,99325.03
2022-09-28T06:05:08.372Z,99325.84
2022-09-28T06:07:40.629Z,99330.16
2022-09-28T06:10:12.995Z,99329.00
2022-09-28T06:12:47.919Z,99336.16
2022-09-28T06:15:20.513Z,99334.66
2022-09-28T06:18:03.273Z,99340.13
2022-09-28T06:20:37.013Z,99339.34
2022-09-28T06:23:10.094Z,99349.66
2022-09-28T06:25:42.485Z,99355.34
2022-09-28T06:28:17.659Z,99354.59
2022-09-28T06:30:50.037Z,99364.56
2022-09-28T06:33:22.400Z,99360.28
2022-09-28T06:35:54.731Z,99366.75
2022-09-28T06:38:27.258Z,99364.50
2022-09-28T06:40:59.654Z,99360.59
2022-09-28T06:43:34.614Z,99357.28
2022-09-28T06:46:08.426Z,99358.72
2022-09-28T06:48:40.829Z,99368.84
2022-09-28T06:51:13.220Z,99360.50
2022-09-28T06:53:46.269Z,99367.41
2022-09-28T06:56:19.507Z,99379.41
2022-09-28T06:58:51.842Z,99369.00
2022-09-28T07:01:24.161Z,99373.19
2022-09-28T07:03:58.007Z,99384.84
2022-09-28T07:09:50.328Z,99382.53
2022-09-28T07:12:25.373Z,99385.97
2022-09-28T07:14:58.190Z,99389.16
2022-09-28T07:17:32.010Z,99386.47
2022-09-28T07:20:17.341Z,99391.25
2022-09-28T07:22:54.903Z,99394.66
2022-09-28T07:25:30.091Z,99401.69
2022-09-28T07:28:03.282Z,99395.09
2022-09-28T07:30:35.935Z,99397.56
2022-09-28T07:33:10.627Z,99405.84
2022-09-28T07:35:50.677Z,99407.25
2022-09-28T07:38:23.264Z,99399.97
2022-09-28T07:41:16.807Z,99414.13
2022-09-28T07:43:49.814Z,99410.56
2022-09-28T07:46:22.795Z,99414.63
2022-09-28T07:48:55.126Z,99426.47
2022-09-28T07:51:28.020Z,99418.63
2022-09-28T07:54:00.302Z,99420.47
2022-09-28T07:56:34.795Z,99428.81
2022-09-28T07:59:07.718Z,99422.69
2022-09-28T08:01:40.248Z,99432.56
2022-09-28T08:04:12.557Z,99430.13
2022-09-28T08:06:44.916Z,99440.72
2022-09-28T08:09:17.273Z,99439.34
2022-09-28T08:19:18.236Z,99448.81
2022-09-28T08:21:50.834Z,99448.19
2022-09-28T08:24:24.660Z,99449.69
2022-09-28T08:26:57.043Z,99458.88
2022-09-28T08:29:31.853Z,99459.41
2022-09-28T08:32:08.177Z,99460.97
2022-09-28T08:34:41.223Z,99463.84
2022-09-28T08:37:13.543Z,99454.56
2022-09-28T08:39:46.031Z,99466.13
2022-09-28T08:42:33.799Z,99461.34
2022-09-28T08:45:07.970Z,99475.03
2022-09-28T08:48:06.883Z,99465.47
2022-09-28T08:50:50.501Z,99476.16
2022-09-28T08:53:28.910Z,99484.66
2022-09-28T08:56:05.992Z,99472.72
2022-09-28T08:58:41.235Z,99492.97
2022-09-28T09:01:16.747Z,99484.75
2022-09-28T09:03:49.571Z,99490.69
2022-09-28T09:07:00.231Z,99491.66
2022-09-28T09:09:51.006Z,99505.78
2022-09-28T09:12:38.173Z,99494.72
2022-09-28T09:15:18.717Z,99504.03
2022-09-28T09:18:06.200Z,99503.03
2022-09-28T09:20:52.045Z,99506.47
2022-09-28T09:23:28.465Z,99519.69
2022-09-28T09:26:04.940Z,99513.00
2022-09-28T09:28:43.694Z,99522.84
2022-09-28T09:31:35.412Z,99519.78
2022-09-28T09:34:19.710Z,99513.50
2022-09-28T09:36:52.105Z,99532.38
2022-09-28T09:39:43.588Z,99520.34
2022-09-28T09:42:22.164Z,99522.97
2022-09-28T09:45:28.756Z,99522.75
2022-09-28T09:48:07.301Z,99524.25
2022-09-28T09:50:55.902Z,99542.28
2022-09-28T09:54:00.877Z,99538.47
2022-09-28T09:56:38.447Z,99539.19
2022-09-28T09:59:23.002Z,99532.47
2022-09-28T10:01:56.072Z,99526.44
2022-09-28T10:04:48.797Z,99529.59
2022-09-28T10:07:25.821Z,99532.09
2022-09-28T10:09:59.034Z,99544.47
2022-09-28T10:12:31.415Z,99546.81
2022-09-28T10:15:08.283Z,99543.94
2022-09-28T10:17:41.074Z,99528.34
2022-09-28T10:20:14.942Z,99534.53
2022-09-28T10:22:47.887Z,99520.50
2022-09-28T10:25:21.322Z,99518.41
2022-09-28T10:27:57.742Z,99520.44
2022-09-28T10:30:32.031Z,99450.84
2022-09-28T10:33:05.482Z,99522.91
2022-09-28T10:35:42.210Z,99530.09
2022-09-28T10:38:17.264Z,99526.53
2022-09-28T10:40:51.143Z,99517.53
2022-09-28T10:43:23.539Z,99513.63
2022-09-28T10:46:02.879Z,99514.13
2022-09-28T10:48:54.245Z,99516.50
2022-09-28T10:51:54.919Z,99502.59
2022-09-28T10:54:28.751Z,99523.31
2022-09-28T10:57:01.273Z,99525.94
2022-09-28T10:59:41.256Z,99532.47
2022-09-28T11:02:19.822Z,99524.03
2022-09-28T11:04:54.294Z,99522.31
2022-09-28T11:07:31.983Z,99520.91
2022-09-28T11:10:04.508Z,99515.47
2022-09-28T11:12:44.049Z,99519.66
2022-09-28T11:15:19.522Z,99530.97
2022-09-28T11:17:51.896Z,99520.66
2022-09-28T11:20:27.753Z,99521.81
2022-09-28T11:23:15.732Z,99517.44
2022-09-28T11:25:56.377Z,99513.97
2022-09-28T11:28:31.782Z,99516.41
2022-09-28T11:31:07.282Z,99527.59
2022-09-28T11:33:41.406Z,99526.56
2022-09-28T11:36:13.826Z,99530.13
2022-09-28T11:38:47.416Z,99536.28
2022-09-28T11:41:38.407Z,99532.28
2022-09-28T11:44:23.013Z,99534.44
2022-09-28T11:47:10.673Z,99531.78
2022-09-28T11:49:44.203Z,99523.44
2022-09-28T11:52:27.527Z,99527.88
2022-09-28T11:55:06.837Z,99521.38
2022-09-28T11:57:42.241Z,99506.78
2022-09-28T12:00:16.647Z,99507.41
2022-09-28T12:02:52.710Z,99499.25
2022-09-28T12:05:37.579Z,99521.19
2022-09-28T12:08:15.387Z,99509.00
2022-09-28T12:10:48.877Z,99510.03
2022-09-28T12:13:25.425Z,99515.56
2022-09-28T12:16:32.318Z,99522.81
2022-09-28T12:18:53.219Z,99524.50
2022-09-28T12:21:38.215Z,99518.28
2022-09-28T12:24:10.502Z,99506.59
2022-09-28T12:26:54.365Z,99499.59
2022-09-28T12:29:29.592Z,99501.38
2022-09-28T12:32:01.979Z,99497.47
2022-09-28T12:34:34.394Z,99493.38
2022-09-28T12:37:17.721Z,99502.31
2022-09-28T12:40:08.874Z,99498.00
2022-09-28T12:42:42.353Z,99504.66
2022-09-28T12:45:27.675Z,99498.50
2022-09-28T12:48:07.741Z,99490.22
2022-09-28T12:50:56.745Z,99492.28
2022-09-28T12:53:29.887Z,99489.38
2022-09-28T12:56:04.509Z,99489.06
2022-09-28T12:59:00.476Z,99491.22
2022-09-28T13:01:44.509Z,99491.88
2022-09-28T13:04:41.418Z,99495.91
2022-09-28T13:07:40.241Z,99500.72
2022-09-28T13:10:32.603Z,99497.72
2022-09-28T13:13:07.919Z,99487.81
2022-09-28T13:15:43.258Z,99489.44
2022-09-28T13:18:24.762Z,99492.41
2022-09-28T13:21:16.031Z,99493.84
2022-09-28T13:23:50.442Z,99496.91
2022-09-28T13:26:24.014Z,99494.16
2022-09-28T13:29:01.724Z,99496.31
2022-09-28T13:31:37.171Z,99497.09
2022-09-28T13:34:19.405Z,99503.72
2022-09-28T13:37:10.930Z,99497.72
2022-09-28T13:39:57.504Z,99495.47
2022-09-28T13:42:45.050Z,99496.53
2022-09-28T13:45:19.934Z,99490.84
2022-09-28T13:47:57.921Z,99492.38
2022-09-28T13:50:50.576Z,99492.69
2022-09-28T13:53:23.898Z,99496.38
2022-09-28T13:56:00.698Z,99498.97
2022-09-28T13:58:33.210Z,99504.94
2022-09-28T14:01:16.120Z,99510.00
2022-09-28T14:04:07.202Z,99511.06
2022-09-28T14:06:47.523Z,99505.41
2022-09-28T14:09:26.842Z,99514.16
2022-09-28T14:12:03.538Z,99517.22
2022-09-28T14:14:48.926Z,99519.38
2022-09-28T14:17:21.267Z,99513.22
2022-09-28T14:20:02.074Z,99518.75
2022-09-28T14:22:43.389Z,99515.38
2022-09-28T14:25:17.149Z,99510.47
2022-09-28T14:27:51.309Z,99519.66
2022-09-28T14:30:26.168Z,99519.94
2022-09-28T14:32:59.838Z,99514.88
2022-09-28T14:35:33.994Z,99517.59
2022-09-28T14:38:33.161Z,99523.22
2022-09-28T14:41:19.542Z,99520.56
2022-09-28T14:43:58.174Z,99516.94
2022-09-28T14:46:32.252Z,99520.00
2022-09-28T14:49:06.923Z,99525.00
2022-09-28T14:51:42.299Z,99524.72
2022-09-28T14:54:20.011Z,99521.47
2022-09-28T14:56:52.456Z,99534.19
2022-09-28T14:59:35.977Z,99536.88
2022-09-28T15:02:08.327Z,99529.72
2022-09-28T15:04:46.463Z,99531.88
2022-09-28T15:07:20.047Z,99535.69
2022-09-28T15:09:57.016Z,99542.22
2022-09-28T15:12:30.905Z,99538.22
2022-09-28T15:15:05.485Z,99537.72
2022-09-28T15:17:40.291Z,99542.31
2022-09-28T15:20:30.422Z,99538.31
2022-09-28T15:23:04.161Z,99546.69
2022-09-28T15:25:36.492Z,99542.19
2022-09-28T15:28:19.634Z,99551.44
2022-09-28T15:30:58.783Z,99546.34
2022-09-28T15:33:51.285Z,99548.25
2022-09-28T15:36:26.555Z,99550.75
2022-09-28T15:39:07.367Z,99560.41
2022-09-28T15:41:40.817Z,99560.28
2022-09-28T15:44:13.144Z,99557.63
2022-09-28T15:46:52.214Z,99560.38
2022-09-28T15:49:26.773Z,99559.13
2022-09-28T15:52:02.950Z,99556.16
2022-09-28T15:54:39.778Z,99556.72
2022-09-28T15:57:29.025Z,99559.00
2022-09-28T16:00:01.761Z,99567.00
2022-09-28T16:02:35.216Z,99571.41
2022-09-28T16:05:28.077Z,99565.44
2022-09-28T16:08:02.065Z,99566.47
2022-09-28T16:10:35.058Z,99573.28
2022-09-28T16:13:10.126Z,99570.41
2022-09-28T16:15:42.825Z,99573.84
2022-09-28T16:18:20.658Z,99574.16
2022-09-28T16:20:54.462Z,99573.91
2022-09-28T16:23:29.998Z,99565.59
2022-09-28T16:26:08.686Z,99571.59
2022-09-28T16:28:42.388Z,99575.75
2022-09-28T16:31:14.812Z,99571.16
2022-09-28T16:33:54.934Z,99573.38
2022-09-28T16:36:29.852Z,99567.56
2022-09-28T16:39:02.230Z,99574.16
2022-09-28T16:41:34.524Z,99578.63
2022-09-28T16:44:13.585Z,99574.19
2022-09-28T16:46:46.132Z,99579.88
2022-09-28T16:49:18.910Z,99579.25
2022-09-28T16:51:51.380Z,99578.31
2022-09-28T16:54:43.388Z,99581.88
2022-09-28T16:57:16.180Z,99589.38
2022-09-28T16:59:48.485Z,99587.22
2022-09-28T17:05:20.217Z,99595.53
2022-09-28T17:07:59.505Z,99594.91
2022-09-28T17:13:45.933Z,99591.84
2022-09-28T17:16:32.223Z,99597.69
2022-09-28T17:19:20.220Z,99590.72
2022-09-28T17:21:52.811Z,99596.34
2022-09-28T17:24:25.395Z,99597.19
2022-09-28T17:26:57.990Z,99598.94
2022-09-28T17:29:30.331Z,99591.91
2022-09-28T17:32:02.730Z,99598.97
2022-09-28T17:34:36.282Z,99597.31
2022-09-28T17:37:11.900Z,99594.75
2022-09-28T17:39:44.202Z,99598.00
2022-09-28T17:42:23.161Z,99602.78
2022-09-28T17:44:55.540Z,99605.44
2022-09-28T17:47:33.464Z,99607.47
2022-09-28T17:50:19.774Z,99606.72
2022-09-28T17:52:52.517Z,99606.72
2022-09-28T17:55:29.403Z,99607.06
2022-09-28T17:58:05.007Z,99604.75
2022-09-28T18:00:37.375Z,99606.28
2022-09-28T18:03:13.069Z,99612.63
2022-09-28T18:05:48.164Z,99610.38
2022-09-28T18:08:20.937Z,99610.91
2022-09-28T18:10:54.568Z,99612.16
2022-09-28T18:13:27.318Z,99612.91
2022-09-28T18:15:59.794Z,99609.38
2022-09-28T18:18:33.387Z,99621.22
2022-09-28T18:21:06.858Z,99612.72
2022-09-28T18:23:39.181Z,99616.00
2022-09-28T18:26:12.476Z,99613.81
2022-09-28T18:28:45.159Z,99619.47
2022-09-28T18:31:19.087Z,99618.13
2022-09-28T18:33:56.665Z,99615.53
2022-09-28T18:36:32.685Z,99618.38
2022-09-28T18:39:05.161Z,99625.84
2022-09-28T18:41:37.440Z,99623.25
2022-09-28T18:44:10.061Z,99627.06
2022-09-28T18:46:42.904Z,99626.88
2022-09-28T18:49:15.372Z,99626.34
2022-09-28T18:51:47.822Z,99628.16
2022-09-28T18:54:20.115Z,99630.09
2022-09-28T18:56:56.341Z,99628.97
2022-09-28T18:59:28.645Z,99618.47
2022-09-28T19:02:01.647Z,99620.75
2022-09-28T19:04:38.629Z,99621.56
2022-09-28T19:07:10.964Z,99623.94
2022-09-28T19:09:45.947Z,99621.28
2022-09-28T19:12:40.822Z,99621.00
2022-09-28T19:15:13.171Z,99623.38
2022-09-28T19:17:49.249Z,99619.97
2022-09-28T19:20:21.756Z,99617.66
2022-09-28T19:22:54.097Z,99622.03
2022-09-28T19:25:26.511Z,99621.81
2022-09-28T19:27:58.813Z,99622.66
2022-09-28T19:30:31.154Z,99627.81
2022-09-28T19:33:03.445Z,99627.09
2022-09-28T19:35:35.745Z,99631.81
2022-09-28T19:38:10.472Z,99635.78
2022-09-28T19:40:42.788Z,99637.00
2022-09-28T19:43:15.169Z,99634.78
2022-09-28T19:45:52.162Z,99634.53
2022-09-28T19:48:28.288Z,99642.03
2022-09-28T19:54:58.344Z,99636.72
2022-09-28T19:57:32.787Z,99638.00
2022-09-28T20:00:05.534Z,99643.19
2022-09-28T20:02:37.947Z,99637.34
2022-09-28T20:05:22.169Z,99646.34
2022-09-28T20:08:06.118Z,99646.78
2022-09-28T20:10:40.823Z,99647.19
2022-09-28T20:23:52.277Z,99650.06
2022-09-28T20:26:25.465Z,99654.84
2022-09-28T20:28:58.186Z,99656.81
2022-09-28T20:31:30.734Z,99653.28
2022-09-28T20:34:03.616Z,99653.38
2022-09-28T20:36:35.928Z,99658.91
2022-09-28T20:39:10.167Z,99665.59
2022-09-28T20:41:42.557Z,99658.84
2022-09-28T20:44:14.922Z,99661.94
2022-09-28T20:46:49.507Z,99660.88
2022-09-28T20:49:21.893Z,99656.66
2022-09-28T20:51:54.451Z,99656.81
2022-09-28T20:54:26.764Z,99653.69
2022-09-28T20:56:59.198Z,99654.75
2022-09-28T20:59:31.588Z,99657.47
2022-09-28T21:02:08.673Z,99662.28
2022-09-28T21:04:41.434Z,99662.28
2022-09-28T21:07:13.982Z,99653.69
2022-09-28T21:09:46.588Z,99649.75
2022-09-28T21:12:20.519Z,99660.00
2022-09-28T21:14:53.861Z,99651.44
2022-09-28T21:17:26.230Z,99654.66
2022-09-28T21:19:58.599Z,99657.53
2022-09-28T21:22:31.000Z,99658.84
2022-09-28T21:25:03.644Z,99655.03
2022-09-28T21:27:36.550Z,99656.59
2022-09-28T21:30:09.614Z,99652.59
2022-09-28T21:32:41.929Z,99657.28
2022-09-28T21:35:14.470Z,99659.59
2022-09-28T21:37:46.955Z,99658.00
2022-09-28T21:40:20.440Z,99659.56
2022-09-28T21:42:52.754Z,99660.38
2022-09-28T21:45:25.281Z,99661.56
2022-09-28T21:47:58.339Z,99663.91
2022-09-28T21:50:30.968Z,99660.31
2022-09-28T21:53:03.291Z,99669.66
2022-09-28T21:55:35.659Z,99665.59
2022-09-28T21:58:07.978Z,99672.50
2022-09-28T22:00:40.589Z,99674.03
2022-09-28T22:03:12.898Z,99678.00
2022-09-28T22:05:45.343Z,99686.19
2022-09-28T22:08:18.293Z,99684.59
2022-09-28T22:11:00.495Z,99683.31
2022-09-28T22:13:34.338Z,99688.44
2022-09-28T22:16:07.533Z,99682.97
2022-09-28T22:18:39.826Z,99685.34
2022-09-28T22:21:22.904Z,99694.41
2022-09-28T22:24:03.349Z,99695.22
2022-09-28T22:26:38.229Z,99701.56
2022-09-28T22:29:12.211Z,99693.34
2022-09-28T22:31:44.713Z,99693.03
2022-09-28T22:34:17.362Z,99696.25
2022-09-28T22:36:49.716Z,99695.13
2022-09-28T22:39:22.175Z,99695.94
2022-09-28T22:41:54.610Z,99694.47
2022-09-28T22:44:27.976Z,99696.06
2022-09-28T22:47:00.276Z,99695.59
2022-09-28T22:49:32.650Z,99690.91
2022-09-28T23:04:55.753Z,99694.91
2022-09-28T23:07:28.057Z,99699.56
2022-09-28T23:10:02.902Z,99698.09
2022-09-28T23:12:35.908Z,99705.22
2022-09-28T23:15:08.872Z,99699.38
2022-09-28T23:17:41.161Z,99693.22
2022-09-28T23:20:13.550Z,99692.75
2022-09-28T23:22:47.663Z,99690.84
2022-09-28T23:25:20.004Z,99686.19
2022-09-28T23:27:52.559Z,99694.72
2022-09-28T23:30:26.244Z,99695.44
2022-09-28T23:32:58.590Z,99693.91
2022-09-28T23:35:31.497Z,99693.16
2022-09-28T23:38:03.829Z,99682.69
2022-09-28T23:40:40.574Z,99699.13
2022-09-28T23:43:13.500Z,99694.88
2022-09-28T23:45:46.017Z,99696.13
2022-09-28T23:48:19.668Z,99696.94
2022-09-28T23:50:52.035Z,99693.78
2022-09-28T23:53:24.396Z,99694.63
2022-09-28T23:55:56.750Z,99694.19
2022-09-28T23:58:29.281Z,99690.31
